sensor_id;sensor_type;location;lat;lon;timestamp;pressure;altitude;pressure_sealevel;temperature;humidity
67740;BME280;54536;50.090;14.420;2023-02-28T00:01:27;100613.81;;;4.60;47.45
67740;BME280;54536;50.090;14.420;2023-02-28T00:03:54;100614.75;;;4.59;48.00
67740;BME280;54536;50.090;14.420;2023-02-28T00:06:20;100619.03;;;4.60;47.92
67740;BME280;54536;50.090;14.420;2023-02-28T00:08:47;100613.13;;;4.56;47.80
67740;BME280;54536;50.090;14.420;2023-02-28T00:11:15;100613.81;;;4.60;48.06
67740;BME280;54536;50.090;14.420;2023-02-28T00:13:44;100621.63;;;4.60;47.54
67740;BME280;54536;50.090;14.420;2023-02-28T00:16:15;100616.53;;;4.38;47.78
67740;BME280;54536;50.090;14.420;2023-02-28T00:18:49;100620.09;;;4.56;47.96
67740;BME280;54536;50.090;14.420;2023-02-28T00:21:22;100619.13;;;4.38;47.94
67740;BME280;54536;50.090;14.420;2023-02-28T00:23:54;100616.25;;;4.44;48.18
67740;BME280;54536;50.090;14.420;2023-02-28T00:26:22;100620.94;;;4.56;47.66
67740;BME280;54536;50.090;14.420;2023-02-28T00:28:51;100627.06;;;4.55;47.67
67740;BME280;54536;50.090;14.420;2023-02-28T00:31:25;100621.47;;;4.44;48.06
67740;BME280;54536;50.090;14.420;2023-02-28T00:33:57;100623.56;;;4.36;48.02
67740;BME280;54536;50.090;14.420;2023-02-28T00:36:24;100626.28;;;4.53;47.66
67740;BME280;54536;50.090;14.420;2023-02-28T00:38:52;100617.28;;;4.60;48.21
67740;BME280;54536;50.090;14.420;2023-02-28T00:41:19;100625.66;;;4.48;47.57
67740;BME280;54536;50.090;14.420;2023-02-28T00:43:45;100625.22;;;4.57;47.56
67740;BME280;54536;50.090;14.420;2023-02-28T00:46:12;100617.19;;;4.43;47.83
67740;BME280;54536;50.090;14.420;2023-02-28T00:48:38;100624.72;;;4.49;47.53
67740;BME280;54536;50.090;14.420;2023-02-28T00:51:05;100618.47;;;4.53;47.87
67740;BME280;54536;50.090;14.420;2023-02-28T00:53:31;100619.69;;;4.65;47.84
67740;BME280;54536;50.090;14.420;2023-02-28T00:56:02;100615.31;;;4.65;47.78
67740;BME280;54536;50.090;14.420;2023-02-28T00:58:28;100613.81;;;4.60;48.10
67740;BME280;54536;50.090;14.420;2023-02-28T01:00:55;100615.88;;;4.72;48.67
67740;BME280;54536;50.090;14.420;2023-02-28T01:03:23;100622.03;;;4.51;47.69
67740;BME280;54536;50.090;14.420;2023-02-28T01:05:56;100616.66;;;4.55;47.62
67740;BME280;54536;50.090;14.420;2023-02-28T01:08:23;100615.50;;;4.42;47.67
67740;BME280;54536;50.090;14.420;2023-02-28T01:10:50;100613.06;;;4.37;47.88
67740;BME280;54536;50.090;14.420;2023-02-28T01:13:17;100618.81;;;4.45;47.87
67740;BME280;54536;50.090;14.420;2023-02-28T01:15:49;100617.88;;;4.46;48.31
67740;BME280;54536;50.090;14.420;2023-02-28T01:18:20;100615.53;;;4.40;48.24
67740;BME280;54536;50.090;14.420;2023-02-28T01:20:53;100610.06;;;4.46;48.05
67740;BME280;54536;50.090;14.420;2023-02-28T01:23:31;100609.00;;;4.51;48.28
67740;BME280;54536;50.090;14.420;2023-02-28T01:26:12;100604.66;;;4.51;48.57
67740;BME280;54536;50.090;14.420;2023-02-28T01:28:44;100607.25;;;4.51;48.01
67740;BME280;54536;50.090;14.420;2023-02-28T01:31:12;100608.25;;;4.49;48.00
67740;BME280;54536;50.090;14.420;2023-02-28T01:33:39;100613.13;;;4.56;49.39
67740;BME280;54536;50.090;14.420;2023-02-28T01:36:14;100612.00;;;4.62;48.31
67740;BME280;54536;50.090;14.420;2023-02-28T01:38:41;100612.97;;;4.59;48.46
67740;BME280;54536;50.090;14.420;2023-02-28T01:41:08;100614.03;;;4.55;48.33
67740;BME280;54536;50.090;14.420;2023-02-28T01:46:11;100606.63;;;4.46;48.26
67740;BME280;54536;50.090;14.420;2023-02-28T01:51:26;100606.41;;;4.32;48.56
67740;BME280;54536;50.090;14.420;2023-02-28T01:54:07;100600.19;;;4.34;48.70
67740;BME280;54536;50.090;14.420;2023-02-28T01:56:46;100597.97;;;4.45;49.86
67740;BME280;54536;50.090;14.420;2023-02-28T01:59:28;100595.25;;;4.49;48.70
67740;BME280;54536;50.090;14.420;2023-02-28T02:01:56;100595.91;;;4.33;48.46
67740;BME280;54536;50.090;14.420;2023-02-28T02:04:27;100597.94;;;4.27;48.52
67740;BME280;54536;50.090;14.420;2023-02-28T02:06:59;100585.47;;;4.33;48.40
67740;BME280;54536;50.090;14.420;2023-02-28T02:09:26;100588.53;;;4.43;48.43
67740;BME280;54536;50.090;14.420;2023-02-28T02:12:32;100583.41;;;4.41;48.38
67740;BME280;54536;50.090;14.420;2023-02-28T02:15:02;100593.44;;;4.30;48.11
67740;BME280;54536;50.090;14.420;2023-02-28T02:17:43;100596.94;;;4.29;48.23
67740;BME280;54536;50.090;14.420;2023-02-28T02:23:28;100587.50;;;4.27;48.46
67740;BME280;54536;50.090;14.420;2023-02-28T02:37:50;100589.41;;;4.23;48.09
67740;BME280;54536;50.090;14.420;2023-02-28T02:40:48;100593.38;;;4.11;47.90
67740;BME280;54536;50.090;14.420;2023-02-28T02:43:25;100588.28;;;4.08;47.96
67740;BME280;54536;50.090;14.420;2023-02-28T02:46:01;100592.00;;;4.23;47.84
67740;BME280;54536;50.090;14.420;2023-02-28T02:48:35;100588.28;;;4.08;47.85
67740;BME280;54536;50.090;14.420;2023-02-28T02:51:11;100591.44;;;4.16;48.22
67740;BME280;54536;50.090;14.420;2023-02-28T02:53:50;100594.53;;;4.04;48.43
67740;BME280;54536;50.090;14.420;2023-02-28T02:56:23;100592.59;;;4.09;47.91
67740;BME280;54536;50.090;14.420;2023-02-28T02:58:56;100590.38;;;4.20;48.44
67740;BME280;54536;50.090;14.420;2023-02-28T03:01:28;100594.22;;;4.12;47.59
67740;BME280;54536;50.090;14.420;2023-02-28T03:04:13;100592.88;;;4.03;47.88
67740;BME280;54536;50.090;14.420;2023-02-28T03:06:43;100588.38;;;4.07;47.95
67740;BME280;54536;50.090;14.420;2023-02-28T03:09:15;100602.91;;;4.12;47.64
67740;BME280;54536;50.090;14.420;2023-02-28T03:11:42;100600.34;;;4.11;47.84
67740;BME280;54536;50.090;14.420;2023-02-28T03:20:47;100606.50;;;4.08;47.94
67740;BME280;54536;50.090;14.420;2023-02-28T03:23:16;100604.31;;;4.19;47.85
67740;BME280;54536;50.090;14.420;2023-02-28T03:26:05;100601.56;;;4.02;46.95
67740;BME280;54536;50.090;14.420;2023-02-28T03:31:22;100596.94;;;3.88;47.16
67740;BME280;54536;50.090;14.420;2023-02-28T03:34:06;100604.75;;;3.88;47.67
67740;BME280;54536;50.090;14.420;2023-02-28T03:36:41;100603.28;;;4.03;47.38
67740;BME280;54536;50.090;14.420;2023-02-28T03:39:19;100604.25;;;4.01;47.75
67740;BME280;54536;50.090;14.420;2023-02-28T03:41:59;100601.09;;;3.72;48.79
67740;BME280;54536;50.090;14.420;2023-02-28T03:44:54;100600.00;;;3.98;49.05
67740;BME280;54536;50.090;14.420;2023-02-28T03:47:39;100601.78;;;3.97;47.48
67740;BME280;54536;50.090;14.420;2023-02-28T03:50:22;100592.59;;;3.89;48.20
67740;BME280;54536;50.090;14.420;2023-02-28T03:53:00;100604.69;;;3.90;47.53
67740;BME280;54536;50.090;14.420;2023-02-28T03:55:40;100604.84;;;3.87;48.08
67740;BME280;54536;50.090;14.420;2023-02-28T03:58:30;100596.69;;;3.94;47.35
67740;BME280;54536;50.090;14.420;2023-02-28T04:01:03;100595.13;;;3.70;47.90
67740;BME280;54536;50.090;14.420;2023-02-28T04:03:35;100601.34;;;3.66;49.19
67740;BME280;54536;50.090;14.420;2023-02-28T04:06:03;100608.97;;;3.70;48.14
67740;BME280;54536;50.090;14.420;2023-02-28T04:08:30;100601.22;;;3.69;47.58
67740;BME280;54536;50.090;14.420;2023-02-28T04:13:46;100609.72;;;3.52;48.55
67740;BME280;54536;50.090;14.420;2023-02-28T04:16:13;100614.91;;;3.30;49.08
67740;BME280;54536;50.090;14.420;2023-02-28T04:18:39;100605.19;;;3.57;48.46
67740;BME280;54536;50.090;14.420;2023-02-28T04:21:07;100602.09;;;3.47;48.55
67740;BME280;54536;50.090;14.420;2023-02-28T04:23:33;100607.78;;;3.35;48.72
67740;BME280;54536;50.090;14.420;2023-02-28T04:26:00;100610.38;;;3.35;49.07
67740;BME280;54536;50.090;14.420;2023-02-28T04:28:33;100608.75;;;3.33;48.89
67740;BME280;54536;50.090;14.420;2023-02-28T04:31:03;100613.34;;;3.26;48.86
67740;BME280;54536;50.090;14.420;2023-02-28T04:33:32;100616.00;;;3.24;49.23
67740;BME280;54536;50.090;14.420;2023-02-28T04:36:07;100616.78;;;3.48;48.69
67740;BME280;54536;50.090;14.420;2023-02-28T04:38:36;100613.06;;;3.34;48.51
67740;BME280;54536;50.090;14.420;2023-02-28T04:41:09;100610.69;;;3.27;49.29
67740;BME280;54536;50.090;14.420;2023-02-28T04:43:36;100614.38;;;3.22;49.33
67740;BME280;54536;50.090;14.420;2023-02-28T04:46:04;100615.44;;;3.16;49.29
67740;BME280;54536;50.090;14.420;2023-02-28T04:48:33;100620.38;;;3.24;49.57
67740;BME280;54536;50.090;14.420;2023-02-28T04:51:03;100616.47;;;3.12;48.94
67740;BME280;54536;50.090;14.420;2023-02-28T04:53:30;100624.38;;;3.09;49.73
67740;BME280;54536;50.090;14.420;2023-02-28T04:56:04;100623.84;;;3.01;49.54
67740;BME280;54536;50.090;14.420;2023-02-28T04:58:32;100617.84;;;2.99;49.59
67740;BME280;54536;50.090;14.420;2023-02-28T05:01:05;100627.81;;;3.10;49.89
67740;BME280;54536;50.090;14.420;2023-02-28T05:03:42;100626.56;;;2.98;50.26
67740;BME280;54536;50.090;14.420;2023-02-28T05:06:10;100631.66;;;3.23;50.15
67740;BME280;54536;50.090;14.420;2023-02-28T05:08:36;100630.88;;;3.21;49.66
67740;BME280;54536;50.090;14.420;2023-02-28T05:11:05;100638.34;;;3.07;49.53
67740;BME280;54536;50.090;14.420;2023-02-28T05:13:32;100638.91;;;3.15;50.10
67740;BME280;54536;50.090;14.420;2023-02-28T05:15:59;100632.47;;;3.01;49.58
67740;BME280;54536;50.090;14.420;2023-02-28T05:18:24;100638.81;;;3.16;49.04
67740;BME280;54536;50.090;14.420;2023-02-28T05:20:51;100642.19;;;2.96;49.62
67740;BME280;54536;50.090;14.420;2023-02-28T05:23:20;100639.47;;;2.99;49.58
67740;BME280;54536;50.090;14.420;2023-02-28T05:25:49;100641.50;;;3.15;49.31
67740;BME280;54536;50.090;14.420;2023-02-28T05:28:17;100642.16;;;2.98;49.77
67740;BME280;54536;50.090;14.420;2023-02-28T05:30:46;100646.09;;;3.08;49.82
67740;BME280;54536;50.090;14.420;2023-02-28T05:33:12;100646.44;;;2.99;49.96
67740;BME280;54536;50.090;14.420;2023-02-28T05:36:00;100642.16;;;2.98;49.61
67740;BME280;54536;50.090;14.420;2023-02-28T05:38:26;100651.63;;;2.99;49.77
67740;BME280;54536;50.090;14.420;2023-02-28T05:40:53;100646.72;;;2.91;49.69
67740;BME280;54536;50.090;14.420;2023-02-28T05:43:19;100653.41;;;2.97;50.28
67740;BME280;54536;50.090;14.420;2023-02-28T05:45:45;100656.19;;;2.92;49.89
67740;BME280;54536;50.090;14.420;2023-02-28T05:48:11;100657.16;;;2.90;49.62
67740;BME280;54536;50.090;14.420;2023-02-28T05:50:38;100655.06;;;2.76;49.55
67740;BME280;54536;50.090;14.420;2023-02-28T05:53:04;100665.09;;;2.62;49.86
67740;BME280;54536;50.090;14.420;2023-02-28T05:55:31;100661.38;;;2.69;49.68
67740;BME280;54536;50.090;14.420;2023-02-28T05:57:57;100665.59;;;2.71;49.75
67740;BME280;54536;50.090;14.420;2023-02-28T06:00:26;100670.94;;;2.68;49.78
67740;BME280;54536;50.090;14.420;2023-02-28T06:02:54;100670.03;;;2.93;49.89
67740;BME280;54536;50.090;14.420;2023-02-28T06:05:28;100672.69;;;2.91;48.96
67740;BME280;54536;50.090;14.420;2023-02-28T06:07:56;100680.09;;;2.78;49.07
67740;BME280;54536;50.090;14.420;2023-02-28T06:10:23;100669.13;;;2.94;49.13
67740;BME280;54536;50.090;14.420;2023-02-28T06:12:49;100683.75;;;2.73;49.11
67740;BME280;54536;50.090;14.420;2023-02-28T06:15:16;100685.13;;;2.58;49.50
67740;BME280;54536;50.090;14.420;2023-02-28T06:17:43;100687.78;;;2.56;49.40
67740;BME280;54536;50.090;14.420;2023-02-28T06:20:11;100684.16;;;2.61;49.14
67740;BME280;54536;50.090;14.420;2023-02-28T06:22:39;100692.97;;;2.56;49.11
67740;BME280;54536;50.090;14.420;2023-02-28T06:25:06;100697.25;;;2.57;48.67
67740;BME280;54536;50.090;14.420;2023-02-28T06:27:33;100696.94;;;2.67;49.47
67740;BME280;54536;50.090;14.420;2023-02-28T06:30:00;100697.28;;;2.81;49.25
67740;BME280;54536;50.090;14.420;2023-02-28T06:32:26;100699.75;;;2.86;48.93
67740;BME280;54536;50.090;14.420;2023-02-28T06:34:53;100710.28;;;2.81;48.70
67740;BME280;54536;50.090;14.420;2023-02-28T06:37:20;100719.03;;;2.78;48.76
67740;BME280;54536;50.090;14.420;2023-02-28T06:39:46;100721.25;;;2.89;48.33
67740;BME280;54536;50.090;14.420;2023-02-28T06:42:12;100714.84;;;2.74;48.40
67740;BME280;54536;50.090;14.420;2023-02-28T06:44:39;100713.50;;;2.88;48.17
67740;BME280;54536;50.090;14.420;2023-02-28T06:47:06;100716.22;;;2.85;48.49
67740;BME280;54536;50.090;14.420;2023-02-28T06:49:39;100716.22;;;2.85;47.84
67740;BME280;54536;50.090;14.420;2023-02-28T06:52:05;100722.94;;;2.90;47.93
67740;BME280;54536;50.090;14.420;2023-02-28T06:54:32;100722.47;;;2.79;48.69
67740;BME280;54536;50.090;14.420;2023-02-28T06:56:58;100725.41;;;2.70;48.26
67740;BME280;54536;50.090;14.420;2023-02-28T06:59:25;100723.00;;;2.89;48.27
67740;BME280;54536;50.090;14.420;2023-02-28T07:01:55;100721.19;;;2.91;47.76
67740;BME280;54536;50.090;14.420;2023-02-28T07:04:22;100729.22;;;2.85;47.72
67740;BME280;54536;50.090;14.420;2023-02-28T07:06:48;100731.69;;;2.88;47.42
67740;BME280;54536;50.090;14.420;2023-02-28T07:09:14;100732.13;;;2.75;47.78
67740;BME280;54536;50.090;14.420;2023-02-28T07:11:41;100736.03;;;2.87;47.67
67740;BME280;54536;50.090;14.420;2023-02-28T07:14:10;100730.63;;;2.93;47.61
67740;BME280;54536;50.090;14.420;2023-02-28T07:16:36;100733.00;;;2.99;46.92
67740;BME280;54536;50.090;14.420;2023-02-28T07:19:02;100735.94;;;2.90;46.84
67740;BME280;54536;50.090;14.420;2023-02-28T07:21:28;100734.13;;;2.92;46.71
67740;BME280;54536;50.090;14.420;2023-02-28T07:23:57;100733.81;;;3.01;46.61
67740;BME280;54536;50.090;14.420;2023-02-28T07:26:23;100734.06;;;2.94;46.31
67740;BME280;54536;50.090;14.420;2023-02-28T07:28:50;100739.22;;;2.95;47.11
67740;BME280;54536;50.090;14.420;2023-02-28T07:31:17;100739.66;;;3.07;46.44
67740;BME280;54536;50.090;14.420;2023-02-28T07:33:44;100732.84;;;3.27;46.51
67740;BME280;54536;50.090;14.420;2023-02-28T07:36:13;100742.28;;;3.30;46.20
67740;BME280;54536;50.090;14.420;2023-02-28T07:38:46;100739.81;;;3.27;45.87
67740;BME280;54536;50.090;14.420;2023-02-28T07:41:30;100752.44;;;3.13;45.86
67740;BME280;54536;50.090;14.420;2023-02-28T07:44:00;100747.34;;;3.33;45.62
67740;BME280;54536;50.090;14.420;2023-02-28T07:46:26;100750.56;;;3.40;44.99
67740;BME280;54536;50.090;14.420;2023-02-28T07:48:53;100745.56;;;3.35;45.37
67740;BME280;54536;50.090;14.420;2023-02-28T07:51:22;100755.63;;;3.44;45.18
67740;BME280;54536;50.090;14.420;2023-02-28T07:53:55;100760.47;;;3.30;44.98
67740;BME280;54536;50.090;14.420;2023-02-28T07:56:21;100757.28;;;3.47;44.31
67740;BME280;54536;50.090;14.420;2023-02-28T07:58:47;100755.00;;;3.38;44.97
67740;BME280;54536;50.090;14.420;2023-02-28T08:01:20;100754.91;;;3.41;44.35
67740;BME280;54536;50.090;14.420;2023-02-28T08:03:46;100760.34;;;3.33;44.29
67740;BME280;54536;50.090;14.420;2023-02-28T08:06:18;100756.41;;;3.46;44.63
67740;BME280;54536;50.090;14.420;2023-02-28T08:08:46;100753.75;;;3.48;43.61
67740;BME280;54536;50.090;14.420;2023-02-28T08:11:12;100752.50;;;3.58;43.62
67740;BME280;54536;50.090;14.420;2023-02-28T08:13:38;100749.44;;;3.70;45.03
67740;BME280;54536;50.090;14.420;2023-02-28T08:16:05;100752.91;;;3.69;44.03
67740;BME280;54536;50.090;14.420;2023-02-28T08:18:32;100748.63;;;3.68;44.05
67740;BME280;54536;50.090;14.420;2023-02-28T08:20:58;100748.03;;;3.84;43.34
67740;BME280;54536;50.090;14.420;2023-02-28T08:23:25;100742.66;;;3.88;43.97
67740;BME280;54536;50.090;14.420;2023-02-28T08:25:55;100746.16;;;3.87;42.95
67740;BME280;54536;50.090;14.420;2023-02-28T08:28:22;100749.44;;;3.92;42.87
67740;BME280;54536;50.090;14.420;2023-02-28T08:30:49;100745.34;;;4.09;42.96
67740;BME280;54536;50.090;14.420;2023-02-28T08:33:16;100742.16;;;4.01;42.69
67740;BME280;54536;50.090;14.420;2023-02-28T08:35:42;100745.38;;;4.07;42.95
67740;BME280;54536;50.090;14.420;2023-02-28T08:38:08;100750.13;;;4.40;44.11
67740;BME280;54536;50.090;14.420;2023-02-28T08:40:34;100742.09;;;4.44;42.93
67740;BME280;54536;50.090;14.420;2023-02-28T08:43:01;100741.63;;;4.35;41.57
67740;BME280;54536;50.090;14.420;2023-02-28T08:45:27;100748.94;;;4.47;40.96
67740;BME280;54536;50.090;14.420;2023-02-28T08:47:56;100754.88;;;4.51;40.38
67740;BME280;54536;50.090;14.420;2023-02-28T08:50:22;100751.28;;;4.53;40.95
67740;BME280;54536;50.090;14.420;2023-02-28T08:52:48;100754.22;;;4.66;41.05
67740;BME280;54536;50.090;14.420;2023-02-28T08:55:15;100753.44;;;4.64;41.38
67740;BME280;54536;50.090;14.420;2023-02-28T08:57:41;100750.91;;;4.62;40.73
67740;BME280;54536;50.090;14.420;2023-02-28T09:00:08;100742.06;;;4.46;41.30
67740;BME280;54536;50.090;14.420;2023-02-28T09:02:36;100747.25;;;4.66;40.86
67740;BME280;54536;50.090;14.420;2023-02-28T09:05:03;100738.97;;;4.77;40.46
67740;BME280;54536;50.090;14.420;2023-02-28T09:07:29;100739.03;;;4.96;41.12
67740;BME280;54536;50.090;14.420;2023-02-28T09:09:55;100736.41;;;4.96;39.47
67740;BME280;54536;50.090;14.420;2023-02-28T09:12:25;100737.75;;;4.86;39.47
67740;BME280;54536;50.090;14.420;2023-02-28T09:14:52;100740.09;;;4.92;39.46
67740;BME280;54536;50.090;14.420;2023-02-28T09:17:19;100739.09;;;4.95;40.00
67740;BME280;54536;50.090;14.420;2023-02-28T09:19:49;100732.47;;;4.87;39.77
67740;BME280;54536;50.090;14.420;2023-02-28T09:22:15;100729.75;;;5.09;39.39
67740;BME280;54536;50.090;14.420;2023-02-28T09:24:42;100729.91;;;5.25;39.37
67740;BME280;54536;50.090;14.420;2023-02-28T09:27:11;100730.31;;;5.16;39.03
67740;BME280;54536;50.090;14.420;2023-02-28T09:29:37;100730.00;;;5.24;38.22
67740;BME280;54536;50.090;14.420;2023-02-28T09:32:04;100729.44;;;5.17;38.16
67740;BME280;54536;50.090;14.420;2023-02-28T09:34:32;100733.59;;;5.40;37.83
67740;BME280;54536;50.090;14.420;2023-02-28T09:36:59;100729.84;;;5.46;37.64
67740;BME280;54536;50.090;14.420;2023-02-28T09:39:25;100733.59;;;5.40;37.33
67740;BME280;54536;50.090;14.420;2023-02-28T09:41:54;100726.63;;;5.40;37.18
67740;BME280;54536;50.090;14.420;2023-02-28T09:44:40;100733.22;;;5.48;36.76
67740;BME280;54536;50.090;14.420;2023-02-28T09:47:31;100731.97;;;5.37;37.42
67740;BME280;54536;50.090;14.420;2023-02-28T09:53:04;100730.72;;;5.46;37.44
67740;BME280;54536;50.090;14.420;2023-02-28T09:55:57;100743.94;;;5.60;37.42
67740;BME280;54536;50.090;14.420;2023-02-28T09:58:56;100732.31;;;5.49;37.54
67740;BME280;54536;50.090;14.420;2023-02-28T10:07:07;100737.31;;;5.72;37.32
67740;BME280;54536;50.090;14.420;2023-02-28T10:09:48;100744.41;;;5.87;37.23
67740;BME280;54536;50.090;14.420;2023-02-28T10:12:19;100739.28;;;5.86;36.46
67740;BME280;54536;50.090;14.420;2023-02-28T10:14:49;100741.75;;;5.89;37.15
67740;BME280;54536;50.090;14.420;2023-02-28T10:17:25;100744.50;;;6.05;37.38
67740;BME280;54536;50.090;14.420;2023-02-28T10:20:02;100736.44;;;6.09;36.65
67740;BME280;54536;50.090;14.420;2023-02-28T10:22:58;100737.22;;;6.12;37.30
67740;BME280;54536;50.090;14.420;2023-02-28T10:25:29;100740.03;;;6.07;36.32
67740;BME280;54536;50.090;14.420;2023-02-28T10:28:09;100745.94;;;6.10;35.85
67740;BME280;54536;50.090;14.420;2023-02-28T10:30:53;100735.69;;;6.25;36.18
67740;BME280;54536;50.090;14.420;2023-02-28T10:35:54;100733.16;;;6.58;36.23
67740;BME280;54536;50.090;14.420;2023-02-28T10:38:27;100731.06;;;6.47;35.74
67740;BME280;54536;50.090;14.420;2023-02-28T10:41:12;100723.56;;;6.41;36.39
67740;BME280;54536;50.090;14.420;2023-02-28T10:43:41;100726.22;;;6.57;36.02
67740;BME280;54536;50.090;14.420;2023-02-28T10:48:47;100717.31;;;6.61;35.18
67740;BME280;54536;50.090;14.420;2023-02-28T10:51:19;100714.41;;;6.67;35.21
67740;BME280;54536;50.090;14.420;2023-02-28T10:53:52;100728.22;;;6.69;36.06
67740;BME280;54536;50.090;14.420;2023-02-28T10:56:24;100725.66;;;6.85;35.04
67740;BME280;54536;50.090;14.420;2023-02-28T11:06:46;100718.81;;;7.00;35.24
67740;BME280;54536;50.090;14.420;2023-02-28T11:09:28;100712.19;;;7.26;34.43
67740;BME280;54536;50.090;14.420;2023-02-28T11:11:55;100718.41;;;7.55;34.68
67740;BME280;54536;50.090;14.420;2023-02-28T11:14:28;100714.22;;;7.53;34.08
67740;BME280;54536;50.090;14.420;2023-02-28T11:17:02;100714.88;;;8.34;33.12
67740;BME280;54536;50.090;14.420;2023-02-28T11:19:46;100699.13;;;8.93;31.62
67740;BME280;54536;50.090;14.420;2023-02-28T11:22:27;100699.69;;;8.69;32.27
67740;BME280;54536;50.090;14.420;2023-02-28T11:25:02;100695.38;;;9.11;31.12
67740;BME280;54536;50.090;14.420;2023-02-28T11:30:00;100684.81;;;9.12;31.17
67740;BME280;54536;50.090;14.420;2023-02-28T11:32:29;100696.44;;;9.91;31.36
67740;BME280;54536;50.090;14.420;2023-02-28T11:37:38;100690.16;;;10.34;29.11
67740;BME280;54536;50.090;14.420;2023-02-28T11:40:14;100686.41;;;10.23;29.04
67740;BME280;54536;50.090;14.420;2023-02-28T11:43:01;100694.09;;;10.14;29.55
67740;BME280;54536;50.090;14.420;2023-02-28T11:48:30;100675.53;;;10.29;28.51
67740;BME280;54536;50.090;14.420;2023-02-28T11:51:21;100667.66;;;10.42;29.40
67740;BME280;54536;50.090;14.420;2023-02-28T11:53:54;100666.91;;;10.27;29.08
67740;BME280;54536;50.090;14.420;2023-02-28T11:56:32;100670.41;;;10.53;29.33
67740;BME280;54536;50.090;14.420;2023-02-28T12:10:57;100658.63;;;10.34;29.27
67740;BME280;54536;50.090;14.420;2023-02-28T12:16:41;100652.47;;;9.53;29.91
67740;BME280;54536;50.090;14.420;2023-02-28T12:27:13;100640.81;;;9.84;30.42
67740;BME280;54536;50.090;14.420;2023-02-28T12:29:57;100647.84;;;10.24;29.77
67740;BME280;54536;50.090;14.420;2023-02-28T12:32:26;100642.31;;;10.41;28.57
67740;BME280;54536;50.090;14.420;2023-02-28T12:37:43;100634.19;;;9.79;29.99
67740;BME280;54536;50.090;14.420;2023-02-28T12:40:29;100638.56;;;9.66;32.39
67740;BME280;54536;50.090;14.420;2023-02-28T12:43:04;100638.44;;;9.40;30.98
67740;BME280;54536;50.090;14.420;2023-02-28T12:45:53;100636.19;;;9.07;31.50
67740;BME280;54536;50.090;14.420;2023-02-28T12:48:46;100636.44;;;9.17;31.80
67740;BME280;54536;50.090;14.420;2023-02-28T12:51:16;100638.22;;;9.02;31.22
67740;BME280;54536;50.090;14.420;2023-02-28T12:59:35;100631.03;;;8.62;32.33
67740;BME280;54536;50.090;14.420;2023-02-28T13:08:12;100630.84;;;8.51;32.32
67740;BME280;54536;50.090;14.420;2023-02-28T13:10:49;100624.59;;;8.24;32.44
67740;BME280;54536;50.090;14.420;2023-02-28T13:13:26;100629.13;;;8.36;32.21
67740;BME280;54536;50.090;14.420;2023-02-28T13:16:06;100612.75;;;8.32;32.37
67740;BME280;54536;50.090;14.420;2023-02-28T13:18:44;100616.25;;;8.47;32.37
67740;BME280;54536;50.090;14.420;2023-02-28T13:21:28;100616.44;;;8.58;32.63
67740;BME280;54536;50.090;14.420;2023-02-28T13:23:59;100607.38;;;8.64;32.22
67740;BME280;54536;50.090;14.420;2023-02-28T13:37:34;100610.94;;;8.33;31.93
67740;BME280;54536;50.090;14.420;2023-02-28T13:42:48;100611.59;;;8.36;33.17
67740;BME280;54536;50.090;14.420;2023-02-28T13:48:03;100603.09;;;8.18;33.27
67740;BME280;54536;50.090;14.420;2023-02-28T13:50:34;100605.41;;;8.09;33.92
67740;BME280;54536;50.090;14.420;2023-02-28T13:56:00;100604.75;;;8.05;33.56
67740;BME280;54536;50.090;14.420;2023-02-28T14:01:41;100599.56;;;8.04;34.02
67740;BME280;54536;50.090;14.420;2023-02-28T14:07:00;100601.34;;;8.03;33.68
67740;BME280;54536;50.090;14.420;2023-02-28T14:09:37;100599.09;;;7.97;34.08
67740;BME280;54536;50.090;14.420;2023-02-28T14:18:05;100593.03;;;7.96;33.51
67740;BME280;54536;50.090;14.420;2023-02-28T14:20:40;100597.44;;;8.10;33.30
67740;BME280;54536;50.090;14.420;2023-02-28T14:26:16;100592.47;;;7.91;34.08
67740;BME280;54536;50.090;14.420;2023-02-28T14:37:33;100578.47;;;7.77;34.56
67740;BME280;54536;50.090;14.420;2023-02-28T14:40:01;100582.81;;;7.92;34.44
67740;BME280;54536;50.090;14.420;2023-02-28T14:42:32;100578.75;;;7.72;34.34
67740;BME280;54536;50.090;14.420;2023-02-28T14:45:00;100574.75;;;7.81;34.17
67740;BME280;54536;50.090;14.420;2023-02-28T14:47:34;100576.69;;;7.77;34.14
67740;BME280;54536;50.090;14.420;2023-02-28T14:50:03;100563.13;;;7.70;34.59
67740;BME280;54536;50.090;14.420;2023-02-28T14:52:32;100570.09;;;7.86;34.50
67740;BME280;54536;50.090;14.420;2023-02-28T14:55:03;100563.19;;;7.85;34.92
67740;BME280;54536;50.090;14.420;2023-02-28T14:57:32;100570.44;;;7.80;35.79
67740;BME280;54536;50.090;14.420;2023-02-28T15:02:34;100573.72;;;7.83;35.52
67740;BME280;54536;50.090;14.420;2023-02-28T15:07:39;100582.25;;;7.57;35.67
67740;BME280;54536;50.090;14.420;2023-02-28T15:12:39;100582.47;;;7.68;35.73
67740;BME280;54536;50.090;14.420;2023-02-28T15:15:15;100569.19;;;7.71;35.44
67740;BME280;54536;50.090;14.420;2023-02-28T15:17:50;100587.00;;;7.80;35.28
67740;BME280;54536;50.090;14.420;2023-02-28T15:20:18;100584.59;;;7.61;35.15
67740;BME280;54536;50.090;14.420;2023-02-28T15:22:47;100581.47;;;7.55;35.60
67740;BME280;54536;50.090;14.420;2023-02-28T15:25:20;100584.09;;;7.55;35.78
67740;BME280;54536;50.090;14.420;2023-02-28T15:27:55;100580.78;;;7.67;35.90
67740;BME280;54536;50.090;14.420;2023-02-28T15:30:30;100576.50;;;7.66;34.87
67740;BME280;54536;50.090;14.420;2023-02-28T15:33:18;100586.50;;;7.27;35.74
67740;BME280;54536;50.090;14.420;2023-02-28T15:35:45;100577.88;;;7.25;35.52
67740;BME280;54536;50.090;14.420;2023-02-28T15:38:27;100578.31;;;7.34;36.00
67740;BME280;54536;50.090;14.420;2023-02-28T15:40:57;100582.72;;;7.33;35.85
67740;BME280;54536;50.090;14.420;2023-02-28T15:43:31;100579.47;;;7.44;35.74